createdAt,value
2023-01-10T00:02:25.708Z,13.24
2023-01-10T00:04:53.717Z,13.24
2023-01-10T00:07:21.981Z,13.24
2023-01-10T00:09:53.065Z,13.25
2023-01-10T00:12:39.880Z,13.26
2023-01-10T00:15:11.035Z,13.21
2023-01-10T00:17:39.057Z,13.21
2023-01-10T00:20:08.011Z,13.22
2023-01-10T00:22:36.140Z,13.20
2023-01-10T00:25:06.806Z,13.20
2023-01-10T00:27:49.440Z,13.22
2023-01-10T00:30:17.768Z,13.21
2023-01-10T00:32:46.629Z,13.24
2023-01-10T00:35:14.746Z,13.25
2023-01-10T00:37:46.454Z,13.26
2023-01-10T00:40:15.007Z,13.22
2023-01-10T00:43:18.825Z,13.18
2023-01-10T00:45:46.975Z,13.18
2023-01-10T00:48:18.041Z,13.16
2023-01-10T00:50:47.181Z,13.19
2023-01-10T00:53:15.301Z,13.18
2023-01-10T00:55:47.204Z,13.18
2023-01-10T00:58:17.794Z,13.14
2023-01-10T01:00:46.964Z,13.13
2023-01-10T01:03:15.276Z,13.09
2023-01-10T01:05:43.966Z,13.07
2023-01-10T01:08:12.759Z,13.03
2023-01-10T01:10:42.811Z,12.97
2023-01-10T01:13:16.794Z,12.92
2023-01-10T01:15:46.852Z,12.86
2023-01-10T01:18:17.418Z,12.79
2023-01-10T01:20:46.484Z,12.75
2023-01-10T01:23:15.506Z,12.73
2023-01-10T01:25:43.867Z,12.73
2023-01-10T01:28:13.609Z,12.73
2023-01-10T01:30:41.771Z,12.72
2023-01-10T01:33:11.311Z,12.70
2023-01-10T01:35:39.407Z,12.69
2023-01-10T01:38:07.376Z,12.70
2023-01-10T01:40:36.421Z,12.70
2023-01-10T01:43:04.320Z,12.69
2023-01-10T01:45:41.553Z,12.72
2023-01-10T01:48:23.186Z,12.73
2023-01-10T01:50:56.357Z,12.78
2023-01-10T01:53:28.898Z,12.79
2023-01-10T01:56:02.471Z,12.84
2023-01-10T01:58:37.425Z,12.88
2023-01-10T02:01:05.639Z,12.89
2023-01-10T02:03:36.489Z,12.91
2023-01-10T02:06:04.678Z,12.92
2023-01-10T02:08:32.775Z,12.94
2023-01-10T02:11:08.704Z,12.94
2023-01-10T02:13:41.345Z,12.95
2023-01-10T02:16:10.060Z,12.95
2023-01-10T02:18:42.579Z,12.93
2023-01-10T02:21:35.971Z,12.93
2023-01-10T02:24:42.885Z,12.96
2023-01-10T02:27:29.923Z,12.95
2023-01-10T02:30:45.677Z,12.95
2023-01-10T02:33:23.759Z,12.94
2023-01-10T02:36:21.076Z,12.93
2023-01-10T02:38:58.346Z,12.90
2023-01-10T02:41:32.608Z,12.87
2023-01-10T02:44:05.740Z,12.85
2023-01-10T02:46:35.547Z,12.86
2023-01-10T02:49:05.128Z,12.88
2023-01-10T02:51:34.532Z,12.90
2023-01-10T02:54:09.679Z,12.92
2023-01-10T02:57:24.878Z,12.91
2023-01-10T03:00:05.396Z,12.89
2023-01-10T03:02:52.022Z,12.92
2023-01-10T03:05:36.277Z,12.94
2023-01-10T03:08:12.937Z,12.97
2023-01-10T03:10:46.788Z,13.00
2023-01-10T03:13:20.106Z,13.03
2023-01-10T03:15:51.038Z,13.07
2023-01-10T03:18:25.995Z,13.10
2023-01-10T03:20:59.061Z,13.10
2023-01-10T03:23:29.279Z,13.06
2023-01-10T03:25:59.131Z,13.01
2023-01-10T03:28:32.137Z,12.96
2023-01-10T03:31:03.609Z,12.91
2023-01-10T03:33:34.219Z,12.91
2023-01-10T03:36:16.893Z,12.89
2023-01-10T03:38:51.696Z,12.89
2023-01-10T03:41:34.494Z,12.85
2023-01-10T03:44:27.776Z,12.86
2023-01-10T03:47:01.393Z,12.82
2023-01-10T03:49:30.712Z,12.83
2023-01-10T03:52:02.007Z,12.80
2023-01-10T03:54:30.411Z,12.81
2023-01-10T03:56:58.309Z,12.84
2023-01-10T03:59:28.233Z,12.85
2023-01-10T04:01:57.073Z,12.85
2023-01-10T04:04:25.242Z,12.85
2023-01-10T04:06:53.452Z,12.88
2023-01-10T04:09:23.358Z,12.89
2023-01-10T04:11:51.426Z,12.91
2023-01-10T04:14:19.498Z,12.93
2023-01-10T04:16:47.628Z,12.98
2023-01-10T04:19:15.687Z,12.99
2023-01-10T04:21:43.649Z,12.99
2023-01-10T04:24:11.994Z,13.00
2023-01-10T04:26:41.346Z,13.02
2023-01-10T04:29:09.668Z,13.06
2023-01-10T04:31:37.759Z,13.06
2023-01-10T04:34:05.812Z,13.06
2023-01-10T04:36:34.006Z,13.07
2023-01-10T04:39:01.942Z,13.08
2023-01-10T04:41:29.925Z,13.10
2023-01-10T04:43:59.964Z,13.12
2023-01-10T04:46:28.299Z,13.15
2023-01-10T04:48:56.469Z,13.17
2023-01-10T04:51:24.573Z,13.17
2023-01-10T04:53:52.590Z,13.17
2023-01-10T04:56:23.254Z,13.17
2023-01-10T04:58:53.981Z,13.18
2023-01-10T05:01:25.797Z,13.17
2023-01-10T05:03:55.818Z,13.20
2023-01-10T05:06:25.512Z,13.24
2023-01-10T05:08:54.400Z,13.22
2023-01-10T05:11:22.500Z,13.24
2023-01-10T05:13:50.531Z,13.26
2023-01-10T05:16:18.960Z,13.26
2023-01-10T05:18:48.447Z,13.30
2023-01-10T05:21:16.466Z,13.30
2023-01-10T05:23:44.758Z,13.29
2023-01-10T05:26:15.183Z,13.31
2023-01-10T05:28:43.828Z,13.31
2023-01-10T05:31:14.248Z,13.34
2023-01-10T05:33:46.230Z,13.34
2023-01-10T05:36:16.036Z,13.38
2023-01-10T05:38:44.020Z,13.37
2023-01-10T05:41:12.071Z,13.39
2023-01-10T05:43:40.231Z,13.43
2023-01-10T05:46:08.372Z,13.43
2023-01-10T05:48:36.497Z,13.48
2023-01-10T05:51:04.915Z,13.48
2023-01-10T05:53:34.568Z,13.51
2023-01-10T05:56:04.099Z,13.53
2023-01-10T05:58:32.351Z,13.56
2023-01-10T06:01:00.549Z,13.59
2023-01-10T06:03:29.124Z,13.59
2023-01-10T06:05:57.555Z,13.63
2023-01-10T06:08:26.020Z,13.64
2023-01-10T06:10:55.798Z,13.69
2023-01-10T06:13:24.410Z,13.72
2023-01-10T06:15:52.736Z,13.75
2023-01-10T06:18:20.730Z,13.76
2023-01-10T06:20:48.643Z,13.77
2023-01-10T06:23:17.064Z,13.79
2023-01-10T06:25:46.093Z,13.79
2023-01-10T06:28:16.316Z,13.81
2023-01-10T06:30:46.191Z,13.83
2023-01-10T06:33:14.530Z,13.89
2023-01-10T06:35:44.089Z,13.91
2023-01-10T06:38:12.174Z,13.98
2023-01-10T06:40:40.534Z,14.04
2023-01-10T06:43:08.760Z,14.06
2023-01-10T06:45:38.554Z,14.08
2023-01-10T06:48:07.259Z,14.10
2023-01-10T06:50:35.787Z,14.12
2023-01-10T06:53:05.157Z,14.13
2023-01-10T06:55:33.177Z,14.13
2023-01-10T06:58:03.091Z,14.12
2023-01-10T07:00:32.623Z,14.11
2023-01-10T07:03:03.076Z,14.06
2023-01-10T07:05:31.697Z,14.07
2023-01-10T07:08:03.896Z,14.07
2023-01-10T07:10:33.811Z,14.07
2023-01-10T07:13:02.120Z,14.09
2023-01-10T07:15:30.984Z,14.10
2023-01-10T07:17:59.430Z,14.14
2023-01-10T07:20:30.291Z,14.16
2023-01-10T07:22:59.677Z,14.20
2023-01-10T07:25:29.857Z,14.21
2023-01-10T07:27:58.171Z,14.24
2023-01-10T07:30:26.649Z,14.28
2023-01-10T07:32:59.627Z,14.27
2023-01-10T07:35:29.704Z,14.33
2023-01-10T07:38:00.064Z,14.32
2023-01-10T07:40:28.546Z,14.38
2023-01-10T07:42:58.590Z,14.37
2023-01-10T07:45:28.261Z,14.39
2023-01-10T07:47:58.340Z,14.38
2023-01-10T07:50:29.521Z,14.43
2023-01-10T07:52:58.095Z,14.48
2023-01-10T07:55:26.210Z,14.55
2023-01-10T07:57:54.550Z,14.67
2023-01-10T08:00:23.664Z,14.78
2023-01-10T08:02:54.856Z,14.91
2023-01-10T08:05:22.949Z,15.01
2023-01-10T08:07:52.477Z,15.09
2023-01-10T08:10:20.415Z,15.29
2023-01-10T08:12:48.759Z,15.46
2023-01-10T08:15:16.671Z,15.65
2023-01-10T08:17:44.750Z,15.93
2023-01-10T08:20:13.654Z,16.15
2023-01-10T08:22:41.662Z,16.27
2023-01-10T08:25:11.933Z,16.36
2023-01-10T08:27:39.902Z,16.47
2023-01-10T08:30:09.455Z,16.53
2023-01-10T08:32:37.493Z,16.60
2023-01-10T08:35:05.986Z,16.60
2023-01-10T08:37:33.956Z,16.70
2023-01-10T08:40:01.956Z,16.73
2023-01-10T08:42:31.356Z,16.77
2023-01-10T08:45:00.591Z,16.86
2023-01-10T08:47:29.837Z,16.86
2023-01-10T08:49:57.731Z,16.88
2023-01-10T08:52:25.627Z,16.96
2023-01-10T08:54:53.769Z,16.94
2023-01-10T08:57:21.790Z,16.94
2023-01-10T08:59:51.200Z,17.02
2023-01-10T09:02:19.400Z,17.02
2023-01-10T09:04:48.206Z,17.06
2023-01-10T09:07:16.321Z,17.09
2023-01-10T09:09:44.677Z,17.11
2023-01-10T09:12:26.405Z,17.16
2023-01-10T09:14:55.918Z,17.16
2023-01-10T09:17:23.882Z,17.18
2023-01-10T09:19:52.465Z,17.22
2023-01-10T09:22:20.472Z,17.25
2023-01-10T09:24:48.662Z,17.23
2023-01-10T09:27:16.840Z,17.23
2023-01-10T09:29:44.844Z,17.26
2023-01-10T09:32:14.250Z,17.22
2023-01-10T09:34:42.158Z,17.24
2023-01-10T09:37:10.014Z,17.25
2023-01-10T09:39:39.354Z,17.25
2023-01-10T09:42:28.401Z,17.23
2023-01-10T09:45:04.138Z,17.24
2023-01-10T09:47:46.545Z,17.33
2023-01-10T09:50:21.929Z,17.29
2023-01-10T09:52:54.560Z,17.34
2023-01-10T09:55:27.019Z,17.37
2023-01-10T09:57:58.267Z,17.36
2023-01-10T10:00:40.428Z,17.36
2023-01-10T10:03:20.429Z,17.37
2023-01-10T10:05:50.575Z,17.42
2023-01-10T10:08:23.822Z,17.42
2023-01-10T10:11:17.139Z,17.39
2023-01-10T10:13:51.642Z,17.43
2023-01-10T10:16:32.714Z,17.44
2023-01-10T10:19:14.869Z,17.42
2023-01-10T10:21:52.500Z,17.44
2023-01-10T10:24:34.162Z,17.41
2023-01-10T10:27:12.076Z,17.47
2023-01-10T10:29:51.385Z,17.44
2023-01-10T10:32:50.802Z,17.46
2023-01-10T10:35:28.663Z,17.37
2023-01-10T10:38:01.513Z,17.39
2023-01-10T10:40:33.654Z,17.34
2023-01-10T10:43:12.768Z,17.21
2023-01-10T10:45:47.901Z,17.23
2023-01-10T10:48:21.053Z,17.14
2023-01-10T10:51:00.536Z,17.24
2023-01-10T10:53:28.935Z,17.27
2023-01-10T10:55:57.689Z,17.36
2023-01-10T10:58:27.288Z,17.45
2023-01-10T11:00:57.111Z,17.56
2023-01-10T11:03:32.179Z,17.57
2023-01-10T11:06:02.195Z,17.59
2023-01-10T11:08:31.399Z,17.65
2023-01-10T11:11:00.915Z,17.66
2023-01-10T11:13:42.280Z,17.67
2023-01-10T11:16:26.128Z,17.72
2023-01-10T11:19:18.149Z,17.77
2023-01-10T11:21:58.999Z,17.76
2023-01-10T11:24:31.224Z,17.83
2023-01-10T11:27:02.169Z,17.79
2023-01-10T11:29:39.032Z,17.84
2023-01-10T11:32:15.164Z,17.90
2023-01-10T11:34:48.164Z,17.92
2023-01-10T11:37:25.251Z,17.95
2023-01-10T11:40:16.483Z,17.97
2023-01-10T11:42:44.796Z,18.03
2023-01-10T11:45:33.409Z,18.07
2023-01-10T11:48:09.729Z,18.08
2023-01-10T11:50:40.686Z,18.11
2023-01-10T11:53:37.200Z,18.14
2023-01-10T11:56:09.123Z,18.14
2023-01-10T11:58:40.184Z,18.12
2023-01-10T12:01:25.887Z,18.21
2023-01-10T12:03:53.996Z,18.22
2023-01-10T12:06:22.301Z,18.30
2023-01-10T12:08:56.146Z,18.36
2023-01-10T12:11:28.595Z,18.45
2023-01-10T12:13:58.610Z,18.45
2023-01-10T12:16:28.771Z,18.48
2023-01-10T12:19:00.000Z,18.55
2023-01-10T12:21:39.469Z,18.60
2023-01-10T12:24:17.262Z,18.65
2023-01-10T12:26:47.313Z,18.69
2023-01-10T12:29:22.106Z,18.73
2023-01-10T12:31:52.561Z,18.68
2023-01-10T12:34:22.755Z,18.76
2023-01-10T12:37:00.771Z,18.70
2023-01-10T12:39:35.111Z,18.73
2023-01-10T12:42:32.932Z,18.78
2023-01-10T12:45:06.429Z,18.74
2023-01-10T12:47:44.375Z,18.71
2023-01-10T12:50:17.063Z,18.62
2023-01-10T12:52:50.304Z,18.56
2023-01-10T12:55:23.943Z,18.53
2023-01-10T12:57:54.937Z,18.59
2023-01-10T13:00:26.257Z,18.51
2023-01-10T13:02:57.521Z,18.52
2023-01-10T13:05:27.935Z,18.50
2023-01-10T13:08:01.742Z,18.51
2023-01-10T13:10:32.999Z,18.34
2023-01-10T13:13:07.457Z,18.37
2023-01-10T13:15:40.344Z,18.35
2023-01-10T13:18:21.499Z,18.34
2023-01-10T13:20:50.070Z,18.31
2023-01-10T13:23:32.764Z,18.35
2023-01-10T13:26:06.014Z,18.33
2023-01-10T13:28:36.038Z,18.34
2023-01-10T13:31:07.228Z,18.26
2023-01-10T13:33:41.872Z,18.23
2023-01-10T13:36:13.630Z,18.32
2023-01-10T13:38:51.315Z,18.31
2023-01-10T13:41:39.174Z,18.32
2023-01-10T13:44:11.509Z,18.27
2023-01-10T13:46:46.374Z,18.30
2023-01-10T13:49:46.010Z,18.33
2023-01-10T13:52:35.765Z,18.24
2023-01-10T13:55:25.195Z,18.29
2023-01-10T13:57:57.316Z,18.30
2023-01-10T14:01:04.908Z,18.28
2023-01-10T14:03:48.966Z,18.27
2023-01-10T14:06:40.983Z,18.31
2023-01-10T14:09:45.755Z,18.25
2023-01-10T14:12:26.423Z,18.23
2023-01-10T14:15:06.170Z,18.21
2023-01-10T14:17:36.337Z,18.24
2023-01-10T14:20:15.979Z,18.19
2023-01-10T14:22:58.844Z,18.21
2023-01-10T14:25:28.932Z,18.18
2023-01-10T14:27:59.733Z,18.20
2023-01-10T14:30:33.054Z,18.17
2023-01-10T14:33:06.282Z,18.25
2023-01-10T14:35:40.394Z,18.28
2023-01-10T14:38:15.746Z,18.34
2023-01-10T14:40:46.343Z,18.35
2023-01-10T14:43:19.063Z,18.34
2023-01-10T14:45:53.162Z,18.33
2023-01-10T14:48:27.540Z,18.42
2023-01-10T14:51:12.555Z,18.41
2023-01-10T14:53:41.363Z,18.41
2023-01-10T14:56:20.450Z,18.41
2023-01-10T14:58:48.467Z,18.37
2023-01-10T15:01:24.551Z,18.29
2023-01-10T15:03:53.828Z,18.33
2023-01-10T15:06:22.897Z,18.30
2023-01-10T15:09:00.234Z,18.29
2023-01-10T15:11:30.412Z,18.30
2023-01-10T15:14:05.368Z,18.30
2023-01-10T15:16:38.397Z,18.23
2023-01-10T15:19:06.714Z,18.28
2023-01-10T15:21:34.770Z,18.26
2023-01-10T15:24:03.372Z,18.19
2023-01-10T15:26:34.484Z,18.15
2023-01-10T15:29:13.509Z,18.17
2023-01-10T15:31:44.630Z,18.20
2023-01-10T15:34:18.012Z,18.16
2023-01-10T15:36:50.298Z,18.11
2023-01-10T15:39:22.714Z,18.04
2023-01-10T15:41:56.366Z,18.00
2023-01-10T15:44:35.032Z,18.02
2023-01-10T15:47:04.797Z,18.02
2023-01-10T15:49:33.251Z,18.02
2023-01-10T15:52:01.631Z,18.00
2023-01-10T15:54:33.901Z,17.95
2023-01-10T15:57:21.113Z,17.96
2023-01-10T15:59:51.628Z,18.02
2023-01-10T16:02:24.754Z,17.99
2023-01-10T16:04:57.095Z,17.99
2023-01-10T16:07:27.934Z,18.02
2023-01-10T16:09:59.463Z,18.02
2023-01-10T16:12:52.469Z,18.04
2023-01-10T16:15:26.347Z,18.02
2023-01-10T16:18:05.273Z,18.07
2023-01-10T16:23:40.758Z,18.08
2023-01-10T16:29:12.100Z,18.02
2023-01-10T16:31:40.659Z,17.95
2023-01-10T16:34:13.419Z,17.96
2023-01-10T16:36:46.726Z,17.96
2023-01-10T16:39:19.148Z,17.87
2023-01-10T16:42:05.766Z,17.86
2023-01-10T16:47:18.532Z,17.80
2023-01-10T16:49:48.643Z,17.80
2023-01-10T16:52:17.885Z,17.80
2023-01-10T16:54:52.502Z,17.72
2023-01-10T16:57:21.943Z,17.73
2023-01-10T16:59:50.435Z,17.72
2023-01-10T17:02:24.831Z,17.69
2023-01-10T17:04:55.875Z,17.63
2023-01-10T17:07:29.331Z,17.62
2023-01-10T17:09:58.735Z,17.57
2023-01-10T17:12:35.970Z,17.60
2023-01-10T17:15:13.662Z,17.61
2023-01-10T17:17:46.646Z,17.56
2023-01-10T17:23:48.722Z,17.44
2023-01-10T17:26:21.769Z,17.42
2023-01-10T17:28:53.259Z,17.40
2023-01-10T17:31:24.208Z,17.35
2023-01-10T17:33:57.964Z,17.35
2023-01-10T17:36:29.939Z,17.28
2023-01-10T17:39:45.956Z,17.22
2023-01-10T17:42:17.526Z,17.16
2023-01-10T17:47:35.517Z,17.10
2023-01-10T17:50:17.591Z,17.09
2023-01-10T17:52:47.877Z,17.03
2023-01-10T17:55:30.129Z,17.07
2023-01-10T17:57:58.584Z,17.02
2023-01-10T18:00:27.063Z,16.99
2023-01-10T18:02:58.259Z,16.98
2023-01-10T18:05:48.049Z,16.95
2023-01-10T18:08:32.985Z,17.00
2023-01-10T18:11:16.799Z,16.98
2023-01-10T18:13:48.767Z,16.93
2023-01-10T18:16:17.129Z,16.98
2023-01-10T18:18:46.407Z,16.93
2023-01-10T18:21:16.727Z,16.86
2023-01-10T18:24:04.421Z,16.89
2023-01-10T18:26:32.805Z,16.78
2023-01-10T18:29:01.109Z,16.77
2023-01-10T18:31:33.579Z,16.69
2023-01-10T18:34:03.431Z,16.67
2023-01-10T18:36:34.016Z,16.62
2023-01-10T18:39:03.860Z,16.64
2023-01-10T18:41:32.419Z,16.57
2023-01-10T18:44:04.316Z,16.54
2023-01-10T18:46:32.886Z,16.47
2023-01-10T18:49:01.634Z,16.39
2023-01-10T18:51:29.962Z,16.35
2023-01-10T18:53:58.124Z,16.26
2023-01-10T18:56:27.899Z,16.19
2023-01-10T18:58:58.949Z,16.22
2023-01-10T19:04:23.050Z,16.12
2023-01-10T19:06:51.053Z,16.09
2023-01-10T19:09:19.594Z,16.06
2023-01-10T19:11:49.083Z,16.08
2023-01-10T19:14:19.800Z,16.03
2023-01-10T19:16:47.846Z,16.06
2023-01-10T19:19:15.880Z,16.04
2023-01-10T19:21:49.219Z,16.01
2023-01-10T19:24:23.507Z,15.94
2023-01-10T19:26:57.562Z,15.96
2023-01-10T19:29:26.047Z,15.92
2023-01-10T19:31:54.811Z,15.87
2023-01-10T19:37:18.595Z,15.88
2023-01-10T19:39:46.582Z,15.88
2023-01-10T19:42:16.210Z,15.89
2023-01-10T19:47:26.893Z,15.85
2023-01-10T19:49:54.980Z,15.85
2023-01-10T19:52:23.340Z,15.82
2023-01-10T19:54:51.587Z,15.88
2023-01-10T19:57:21.548Z,15.82
2023-01-10T19:59:52.637Z,15.80
2023-01-10T20:02:23.189Z,15.81
2023-01-10T20:04:51.432Z,15.80
2023-01-10T20:07:19.756Z,15.80
2023-01-10T20:09:57.650Z,15.73
2023-01-10T20:12:28.172Z,15.72
2023-01-10T20:14:56.338Z,15.74
2023-01-10T20:17:25.430Z,15.70
2023-01-10T20:19:55.617Z,15.68
2023-01-10T20:22:24.545Z,15.66
2023-01-10T20:24:58.471Z,15.67
2023-01-10T20:27:32.206Z,15.63
2023-01-10T20:30:00.999Z,15.63
2023-01-10T20:32:29.059Z,15.60
2023-01-10T20:34:57.360Z,15.57
2023-01-10T20:37:25.761Z,15.49
2023-01-10T20:40:06.085Z,15.48
2023-01-10T20:42:35.674Z,15.42
2023-01-10T20:45:04.043Z,15.40
2023-01-10T20:47:33.431Z,15.44
2023-01-10T20:50:04.516Z,15.40
2023-01-10T20:52:34.464Z,15.45
2023-01-10T20:55:02.800Z,15.50
2023-01-10T20:57:31.521Z,15.48
2023-01-10T21:00:22.050Z,15.54
2023-01-10T21:03:11.782Z,15.53
2023-01-10T21:05:40.490Z,15.53
2023-01-10T21:08:09.262Z,15.49
2023-01-10T21:10:42.228Z,15.52
2023-01-10T21:16:03.096Z,15.51
2023-01-10T21:18:44.892Z,15.56
2023-01-10T21:21:19.949Z,15.53
2023-01-10T21:23:51.200Z,15.55
2023-01-10T21:26:20.151Z,15.49
2023-01-10T21:29:03.571Z,15.44
2023-01-10T21:31:44.308Z,15.45
2023-01-10T21:34:14.089Z,15.45
2023-01-10T21:36:44.057Z,15.44
2023-01-10T21:39:13.997Z,15.50
2023-01-10T21:44:45.105Z,15.48
2023-01-10T21:47:13.203Z,15.45
2023-01-10T21:49:43.239Z,15.51
2023-01-10T21:52:11.506Z,15.48
2023-01-10T21:54:45.503Z,15.50
2023-01-10T21:57:13.977Z,15.53
2023-01-10T21:59:42.356Z,15.50
2023-01-10T22:02:15.375Z,15.43
2023-01-10T22:04:47.490Z,15.47
2023-01-10T22:07:16.337Z,15.40
2023-01-10T22:09:44.435Z,15.36
2023-01-10T22:12:12.458Z,15.35
2023-01-10T22:14:45.620Z,15.29
2023-01-10T22:17:15.304Z,15.30
2023-01-10T22:19:44.369Z,15.30
2023-01-10T22:22:14.345Z,15.32
2023-01-10T22:24:46.778Z,15.38
2023-01-10T22:27:15.077Z,15.38
2023-01-10T22:29:43.344Z,15.34
2023-01-10T22:32:11.586Z,15.33
2023-01-10T22:34:43.895Z,15.27
2023-01-10T22:37:13.261Z,15.25
2023-01-10T22:39:41.786Z,15.16
2023-01-10T22:42:09.909Z,15.16
2023-01-10T22:44:39.139Z,15.16
2023-01-10T22:47:07.764Z,15.12
2023-01-10T22:49:36.488Z,15.16
2023-01-10T22:52:08.384Z,15.19
2023-01-10T22:54:38.081Z,15.10
2023-01-10T22:57:06.217Z,15.09
2023-01-10T22:59:38.423Z,15.03
2023-01-10T23:02:07.506Z,15.00
2023-01-10T23:04:35.700Z,14.94
2023-01-10T23:07:03.786Z,14.90
2023-01-10T23:09:32.014Z,14.89
2023-01-10T23:12:04.410Z,14.89
2023-01-10T23:14:32.457Z,14.89
2023-01-10T23:17:00.422Z,14.89
2023-01-10T23:19:28.714Z,14.90
2023-01-10T23:21:56.653Z,14.91
2023-01-10T23:24:24.714Z,14.93
2023-01-10T23:26:52.695Z,14.88
2023-01-10T23:29:22.200Z,14.87
2023-01-10T23:31:51.002Z,14.88
2023-01-10T23:34:19.013Z,14.84
2023-01-10T23:36:51.375Z,14.81
2023-01-10T23:39:21.177Z,14.81
2023-01-10T23:41:49.324Z,14.79
2023-01-10T23:44:17.401Z,14.82
2023-01-10T23:46:47.492Z,14.81
2023-01-10T23:49:15.690Z,14.78
2023-01-10T23:51:43.683Z,14.79
2023-01-10T23:54:12.973Z,14.81
2023-01-10T23:56:41.044Z,14.85
2023-01-10T23:59:09.451Z,14.83
